4XCXA LLHZ-LLHZ

Flight info

Callsign 4XCXA
Flight time 0h 6m
Altitude 800
Route CIRCUITS
Aircraft DA62/L-V/N

Departure

Time 2026-04-15 16:55
Airport Herzliya Airport (LLHZ)

Arrival

Time 2026-04-15 17:01
Airport Herzliya Airport (LLHZ)
Time Latitude Longitude Altitude Speed Heading
2026-04-15 16:51 32.17912 34.83657 114 ft 0 kts 182°
2026-04-15 16:53 32.17903 34.83662 114 ft 0 kts 107°
2026-04-15 16:53 32.17917 34.83675 115 ft 6 kts 14°
2026-04-15 16:53 32.17917 34.83721 117 ft 15 kts 113°
2026-04-15 16:53 32.17885 34.83836 120 ft 12 kts 75°
2026-04-15 16:54 32.17924 34.83821 120 ft 20 kts 287°
2026-04-15 16:54 32.18040 34.83418 101 ft 78 kts 289°
2026-04-15 16:54 32.18236 34.82755 256 ft 90 kts 291°
2026-04-15 16:54 32.18684 34.82492 503 ft 85 kts 26°
2026-04-15 16:55 32.18911 34.83176 541 ft 114 kts 89°
2026-04-15 16:55 32.18803 34.84124 803 ft 113 kts 97°
2026-04-15 16:55 32.18600 34.85054 938 ft 119 kts 121°
2026-04-15 16:55 32.17930 34.85339 907 ft 105 kts 180°
2026-04-15 16:56 32.17619 34.84755 609 ft 91 kts 285°
2026-04-15 16:56 32.17860 34.84014 165 ft 93 kts 290°
2026-04-15 16:56 32.18076 34.83315 120 ft 101 kts 290°
2026-04-15 16:56 32.18359 34.82518 394 ft 93 kts 325°
2026-04-15 16:57 32.18920 34.82534 705 ft 83 kts 49°
2026-04-15 16:57 32.19058 34.83280 690 ft 119 kts 92°
2026-04-15 16:57 32.18918 34.84335 649 ft 136 kts 99°
2026-04-15 16:57 32.18475 34.85240 799 ft 121 kts 153°
2026-04-15 16:58 32.17747 34.85206 660 ft 99 kts 215°
2026-04-15 16:58 32.17726 34.84488 343 ft 98 kts 295°
2026-04-15 16:58 32.17952 34.83729 114 ft 93 kts 289°
2026-04-15 16:58 32.18180 34.82931 203 ft 108 kts 289°
2026-04-15 16:59 32.18688 34.82547 486 ft 93 kts 11°
2026-04-15 16:59 32.19038 34.83066 648 ft 96 kts 82°
2026-04-15 16:59 32.18929 34.83910 579 ft 103 kts 103°
2026-04-15 16:59 32.18832 34.84315 572 ft 99 kts 103°
2026-04-15 17:00 32.18691 34.84860 538 ft 94 kts 108°
2026-04-15 17:00 32.18282 34.85339 630 ft 92 kts 171°
2026-04-15 17:00 32.17625 34.85171 659 ft 96 kts 225°
2026-04-15 17:00 32.17707 34.84502 361 ft 93 kts 301°
2026-04-15 17:01 32.17923 34.83801 120 ft 83 kts 288°
2026-04-15 17:01 32.18049 34.83397 98 ft 19 kts 290°
2026-04-15 17:01 32.18019 34.83318 95 ft 2 kts 192°